Time;durP1;ratioP1;P1;durP2;ratioP2;P2;SDS_P1;SDS_P2;PMS_P1;PMS_P2;Temp;Humidity;BMP_temperature;BMP_pressure;BME280_temperature;BME280_humidity;BME280_pressure;Samples;Min_cycle;Max_cycle;Signal;HPM_P1;HPM_P2
2021/03/03 00:00:54;;;;;;;;;27.33;25.00;;;;;;;;5067939;27;114035;-73
2021/03/03 00:03:20;;;;;;;;;30.00;26.33;;;;;;;;5065193;27;112244;-72
2021/03/03 00:05:46;;;;;;;;;26.33;24.00;;;;;;;;5067942;27;113387;-73
2021/03/03 00:08:12;;;;;;;;;29.67;26.33;;;;;;;;5067213;27;113969;-73
2021/03/03 00:10:38;;;;;;;;;29.00;24.00;;;;;;;;5068550;27;113704;-74
2021/03/03 00:13:04;;;;;;;;;32.67;26.33;;;;;;;;5067206;27;114411;-73
2021/03/03 00:15:30;;;;;;;;;29.67;26.00;;;;;;;;5065219;27;112340;-74
2021/03/03 00:18:00;;;;;;;;;30.33;28.33;;;;;;;;5066680;27;113367;-74
2021/03/03 00:20:26;;;;;;;;;25.67;21.00;;;;;;;;5065438;27;115412;-74
2021/03/03 00:22:52;;;;;;;;;28.67;25.00;;;;;;;;5065665;27;112404;-74
2021/03/03 00:25:19;;;;;;;;;33.33;28.67;;;;;;;;5071386;27;113547;-73
2021/03/03 00:27:45;;;;;;;;;28.33;25.00;;;;;;;;5068068;27;114051;-72
2021/03/03 00:30:12;;;;;;;;;28.00;27.00;;;;;;;;5067768;27;113457;-72
2021/03/03 00:32:37;;;;;;;;;28.33;27.67;;;;;;;;5063107;27;114603;-73
2021/03/03 00:35:05;;;;;;;;;24.33;24.33;;;;;;;;5067712;27;111899;-73
2021/03/03 00:37:31;;;;;;;;;32.33;29.00;;;;;;;;5055324;27;113937;-74
2021/03/03 00:39:57;;;;;;;;;28.33;27.00;;;;;;;;5065184;27;113882;-74
2021/03/03 00:42:23;;;;;;;;;26.00;26.00;;;;;;;;5066350;27;112044;-74
2021/03/03 00:44:49;;;;;;;;;31.67;30.00;;;;;;;;5065497;27;114153;-73
2021/03/03 00:47:15;;;;;;;;;31.67;25.00;;;;;;;;5066802;27;114066;-74
2021/03/03 00:49:41;;;;;;;;;31.67;26.67;;;;;;;;5068214;27;112095;-73
2021/03/03 00:52:08;;;;;;;;;24.00;24.00;;;;;;;;5066038;27;113994;-73
2021/03/03 00:54:34;;;;;;;;;35.67;27.67;;;;;;;;5063800;27;112026;-74
2021/03/03 00:57:00;;;;;;;;;30.00;28.00;;;;;;;;5066495;27;113571;-74
2021/03/03 00:59:26;;;;;;;;;31.00;27.67;;;;;;;;5064161;27;113962;-74
2021/03/03 01:01:52;;;;;;;;;29.00;26.67;;;;;;;;5064530;27;111989;-74
2021/03/03 01:04:18;;;;;;;;;29.33;23.67;;;;;;;;5065641;27;113469;-74
2021/03/03 01:06:43;;;;;;;;;30.67;30.00;;;;;;;;5062579;27;113833;-74
2021/03/03 01:09:10;;;;;;;;;30.33;26.33;;;;;;;;5067255;27;112792;-74
2021/03/03 01:11:36;;;;;;;;;15.67;13.00;;;;;;;;5066010;27;113956;-74
2021/03/03 01:14:02;;;;;;;;;30.00;27.00;;;;;;;;5067373;27;112898;-74
2021/03/03 01:16:28;;;;;;;;;29.67;28.33;;;;;;;;5065421;27;114031;-74
2021/03/03 01:18:54;;;;;;;;;31.67;25.33;;;;;;;;5066866;27;114407;-74
2021/03/03 01:21:20;;;;;;;;;31.00;29.67;;;;;;;;5065328;27;112048;-73
2021/03/03 01:23:46;;;;;;;;;35.00;27.33;;;;;;;;5063907;27;113546;-73
2021/03/03 01:26:13;;;;;;;;;31.00;27.67;;;;;;;;5065484;27;114008;-74
2021/03/03 01:28:39;;;;;;;;;31.00;30.00;;;;;;;;5063573;27;112311;-73
2021/03/03 01:31:05;;;;;;;;;33.67;29.67;;;;;;;;5066227;27;113649;-74
2021/03/03 01:33:32;;;;;;;;;34.00;30.00;;;;;;;;5067060;27;114407;-73
2021/03/03 01:35:58;;;;;;;;;27.33;26.33;;;;;;;;5065212;27;113933;-72
2021/03/03 01:38:24;;;;;;;;;34.33;28.67;;;;;;;;5060916;27;114064;-73
2021/03/03 01:40:50;;;;;;;;;30.67;25.67;;;;;;;;5064204;27;111957;-73
2021/03/03 01:43:17;;;;;;;;;30.33;28.67;;;;;;;;5066009;27;113663;-73
2021/03/03 01:45:43;;;;;;;;;36.67;27.67;;;;;;;;5062854;27;114585;-73
2021/03/03 01:48:10;;;;;;;;;35.33;31.00;;;;;;;;5066851;27;112342;-73
2021/03/03 01:50:37;;;;;;;;;32.33;26.67;;;;;;;;5062434;27;113546;-73
2021/03/03 01:53:03;;;;;;;;;40.67;35.00;;;;;;;;5065335;27;114879;-73
2021/03/03 01:55:29;;;;;;;;;38.00;34.33;;;;;;;;5067776;27;112045;-73
2021/03/03 01:57:55;;;;;;;;;29.33;27.00;;;;;;;;5063819;27;114578;-73
2021/03/03 02:00:23;;;;;;;;;31.00;26.67;;;;;;;;5068414;27;111984;-73
2021/03/03 02:02:49;;;;;;;;;30.00;27.67;;;;;;;;5063941;27;114017;-73
2021/03/03 02:05:15;;;;;;;;;19.00;19.00;;;;;;;;5065961;27;114173;-72
2021/03/03 02:07:45;;;;;;;;;25.67;25.33;;;;;;;;5062787;27;111959;-72
2021/03/03 02:10:15;;;;;;;;;29.00;25.33;;;;;;;;5062229;27;113343;-72
2021/03/03 02:12:43;;;;;;;;;30.00;28.00;;;;;;;;5061688;27;114125;-72
2021/03/03 02:15:11;;;;;;;;;26.00;24.00;;;;;;;;5062740;27;112133;-72
2021/03/03 02:17:40;;;;;;;;;25.00;22.67;;;;;;;;5065340;27;113886;-73
2021/03/03 02:20:08;;;;;;;;;25.33;23.33;;;;;;;;5066901;27;112099;-73
2021/03/03 02:22:40;;;;;;;;;24.67;21.00;;;;;;;;5059694;27;112427;-72
2021/03/03 02:25:09;;;;;;;;;24.00;24.00;;;;;;;;5069024;27;114220;-73
2021/03/03 02:27:36;;;;;;;;;27.67;22.67;;;;;;;;5066100;27;112186;-73
2021/03/03 02:30:03;;;;;;;;;25.67;21.67;;;;;;;;5066691;27;113584;-73
2021/03/03 02:32:30;;;;;;;;;28.00;24.33;;;;;;;;5068088;27;114019;-73
2021/03/03 02:34:56;;;;;;;;;22.67;22.00;;;;;;;;5071438;27;112678;-73
2021/03/03 02:37:23;;;;;;;;;24.67;22.00;;;;;;;;5070356;27;114134;-72
2021/03/03 02:39:51;;;;;;;;;19.00;18.33;;;;;;;;5068266;27;112153;-73
2021/03/03 02:42:19;;;;;;;;;28.67;25.67;;;;;;;;5066199;27;114178;-73
2021/03/03 02:44:46;;;;;;;;;29.00;25.67;;;;;;;;5067833;27;114402;-72
2021/03/03 02:47:13;;;;;;;;;23.33;22.00;;;;;;;;5065165;27;111993;-72
2021/03/03 02:49:40;;;;;;;;;19.67;18.33;;;;;;;;5069226;27;113789;-73
2021/03/03 02:52:06;;;;;;;;;22.00;16.67;;;;;;;;5064189;27;114127;-73
2021/03/03 02:54:32;;;;;;;;;29.67;22.67;;;;;;;;5069354;27;112029;-73
2021/03/03 02:56:58;;;;;;;;;29.33;22.00;;;;;;;;5066867;27;114000;-73
2021/03/03 02:59:27;;;;;;;;;23.67;21.33;;;;;;;;5070767;27;113478;-73
2021/03/03 03:01:55;;;;;;;;;22.33;21.00;;;;;;;;5066862;27;114065;-73
2021/03/03 03:04:23;;;;;;;;;33.00;24.00;;;;;;;;5066307;27;114422;-74
2021/03/03 03:06:49;;;;;;;;;22.33;22.33;;;;;;;;5067861;27;112019;-74
2021/03/03 03:09:18;;;;;;;;;27.00;24.00;;;;;;;;5065940;27;113922;-73
2021/03/03 03:11:46;;;;;;;;;29.67;25.00;;;;;;;;5067783;27;114176;-73
2021/03/03 03:14:14;;;;;;;;;22.00;21.00;;;;;;;;5066010;27;112102;-73
2021/03/03 03:16:40;;;;;;;;;25.67;23.67;;;;;;;;5068466;27;113827;-73
2021/03/03 03:19:08;;;;;;;;;25.33;21.67;;;;;;;;5064176;27;114409;-72
2021/03/03 03:21:38;;;;;;;;;23.00;20.33;;;;;;;;5072173;27;112168;-73
2021/03/03 03:24:04;;;;;;;;;24.00;22.33;;;;;;;;5064504;27;114083;-72
2021/03/03 03:26:32;;;;;;;;;29.00;21.00;;;;;;;;5067662;27;112688;-72
2021/03/03 03:28:58;;;;;;;;;24.00;21.00;;;;;;;;5065935;27;113859;-73
2021/03/03 03:31:24;;;;;;;;;20.33;20.33;;;;;;;;5066169;27;113867;-72
2021/03/03 03:33:52;;;;;;;;;27.00;20.00;;;;;;;;5065981;27;111922;-72
2021/03/03 03:36:19;;;;;;;;;25.33;21.00;;;;;;;;5066174;27;114684;-71
2021/03/03 03:38:45;;;;;;;;;25.33;23.33;;;;;;;;5066770;27;114285;-72
2021/03/03 03:41:12;;;;;;;;;22.67;21.00;;;;;;;;5064743;27;112334;-73
2021/03/03 03:43:38;;;;;;;;;24.00;21.67;;;;;;;;5071461;27;113793;-73
2021/03/03 03:46:05;;;;;;;;;23.00;22.00;;;;;;;;5064763;27;111972;-72
2021/03/03 03:48:34;;;;;;;;;24.00;21.00;;;;;;;;5067937;27;114119;-72
2021/03/03 03:51:02;;;;;;;;;24.33;20.00;;;;;;;;5065218;27;113286;-72
2021/03/03 03:53:30;;;;;;;;;18.00;17.00;;;;;;;;5068422;27;112111;-72
2021/03/03 03:55:56;;;;;;;;;21.67;20.00;;;;;;;;5065385;27;114201;-72
2021/03/03 03:58:22;;;;;;;;;19.67;19.00;;;;;;;;5066373;27;114270;-72
2021/03/03 04:00:48;;;;;;;;;29.67;26.00;;;;;;;;5066847;27;112031;-72
2021/03/03 04:03:14;;;;;;;;;25.33;23.33;;;;;;;;5065812;27;113608;-72
2021/03/03 04:05:40;;;;;;;;;20.67;19.33;;;;;;;;5070895;27;114336;-72
2021/03/03 04:08:06;;;;;;;;;21.33;19.00;;;;;;;;5065182;27;113410;-72
2021/03/03 04:10:33;;;;;;;;;23.67;19.67;;;;;;;;5062073;27;113368;-73
2021/03/03 04:12:59;;;;;;;;;24.67;22.00;;;;;;;;5067711;27;111835;-73
2021/03/03 04:15:25;;;;;;;;;28.33;20.00;;;;;;;;5065551;27;113542;-73
2021/03/03 04:17:52;;;;;;;;;28.00;26.00;;;;;;;;5066086;27;114499;-73
2021/03/03 04:20:18;;;;;;;;;25.50;25.00;;;;;;;;5067098;27;111987;-74
2021/03/03 04:22:44;;;;;;;;;22.00;20.00;;;;;;;;5064767;27;113493;-74
2021/03/03 04:25:12;;;;;;;;;20.00;17.00;;;;;;;;5066555;27;114016;-73
2021/03/03 04:27:39;;;;;;;;;24.50;21.75;;;;;;;;5068114;27;111993;-75
2021/03/03 04:30:06;;;;;;;;;26.75;25.00;;;;;;;;5062947;27;114125;-74
2021/03/03 04:32:32;;;;;;;;;24.75;21.75;;;;;;;;5063345;27;112121;-75
2021/03/03 04:34:58;;;;;;;;;21.25;19.50;;;;;;;;5064734;27;113448;-74
2021/03/03 04:37:24;;;;;;;;;31.25;24.25;;;;;;;;5065068;27;114604;-73
2021/03/03 04:39:50;;;;;;;;;22.50;22.00;;;;;;;;5065770;27;112264;-74
2021/03/03 04:42:15;;;;;;;;;21.50;21.00;;;;;;;;5065070;27;115155;-74
2021/03/03 04:44:42;;;;;;;;;25.00;20.00;;;;;;;;5065555;27;113692;-74
2021/03/03 04:47:08;;;;;;;;;26.50;22.75;;;;;;;;5067447;27;112722;-74
2021/03/03 04:49:34;;;;;;;;;23.50;23.50;;;;;;;;5062808;27;114084;-74
2021/03/03 04:52:00;;;;;;;;;26.33;22.00;;;;;;;;5066976;27;112816;-74
2021/03/03 04:54:26;;;;;;;;;24.50;20.75;;;;;;;;5065711;27;113510;-74
2021/03/03 04:56:52;;;;;;;;;24.75;23.75;;;;;;;;5065200;27;113923;-74
2021/03/03 04:59:18;;;;;;;;;21.50;20.25;;;;;;;;5066061;27;111844;-74
2021/03/03 05:01:45;;;;;;;;;27.00;23.25;;;;;;;;5063905;27;113918;-74
2021/03/03 05:04:11;;;;;;;;;20.50;19.50;;;;;;;;5066223;27;114287;-74
2021/03/03 05:06:37;;;;;;;;;27.00;23.00;;;;;;;;5063795;27;112090;-74
2021/03/03 05:09:03;;;;;;;;;27.50;24.25;;;;;;;;5070222;27;113488;-73
2021/03/03 05:11:29;;;;;;;;;25.75;20.50;;;;;;;;5063990;27;112139;-75
2021/03/03 05:13:55;;;;;;;;;19.50;19.25;;;;;;;;5066172;27;113887;-74
2021/03/03 05:16:21;;;;;;;;;18.50;13.50;;;;;;;;5064866;27;114993;-75
2021/03/03 05:18:48;;;;;;;;;28.00;22.00;;;;;;;;5064860;27;112065;-74
2021/03/03 05:21:14;;;;;;;;;20.25;15.75;;;;;;;;5065922;27;113847;-74
2021/03/03 05:23:40;;;;;;;;;23.50;21.00;;;;;;;;5063350;27;115103;-74
2021/03/03 05:26:07;;;;;;;;;27.00;22.00;;;;;;;;5067079;27;111971;-74
2021/03/03 05:28:33;;;;;;;;;23.50;21.25;;;;;;;;5063136;27;113531;-73
2021/03/03 05:31:00;;;;;;;;;22.75;20.50;;;;;;;;5069345;27;114855;-74
2021/03/03 05:33:26;;;;;;;;;23.25;21.75;;;;;;;;5064389;27;113786;-74
2021/03/03 05:35:53;;;;;;;;;25.75;22.25;;;;;;;;5064090;27;114129;-75
2021/03/03 05:38:19;;;;;;;;;24.25;22.50;;;;;;;;5065063;27;113097;-74
2021/03/03 05:40:46;;;;;;;;;22.00;20.25;;;;;;;;5064285;27;114504;-74
2021/03/03 05:43:12;;;;;;;;;21.67;17.33;;;;;;;;5065581;27;114244;-75
2021/03/03 05:45:39;;;;;;;;;22.25;18.00;;;;;;;;5067033;27;112589;-75
2021/03/03 05:48:05;;;;;;;;;24.25;20.25;;;;;;;;5063557;27;113672;-73
2021/03/03 05:50:31;;;;;;;;;22.00;22.00;;;;;;;;5065257;27;114378;-75
2021/03/03 05:52:59;;;;;;;;;22.25;22.00;;;;;;;;5067534;27;112223;-75
2021/03/03 05:55:25;;;;;;;;;22.50;19.50;;;;;;;;5065368;27;115272;-75
2021/03/03 05:57:51;;;;;;;;;24.25;21.25;;;;;;;;5064784;27;111968;-75
2021/03/03 06:00:18;;;;;;;;;26.75;24.75;;;;;;;;5064788;27;113592;-76
2021/03/03 06:02:44;;;;;;;;;26.00;19.50;;;;;;;;5064701;27;113982;-75
2021/03/03 06:05:11;;;;;;;;;25.75;22.75;;;;;;;;5064430;27;111898;-75
2021/03/03 06:07:38;;;;;;;;;25.25;22.50;;;;;;;;5066685;27;113770;-76
2021/03/03 06:10:06;;;;;;;;;22.00;21.25;;;;;;;;5063248;27;114928;-77
2021/03/03 06:12:32;;;;;;;;;25.25;21.00;;;;;;;;5064730;27;112094;-76
2021/03/03 06:14:58;;;;;;;;;22.00;18.00;;;;;;;;5068387;27;112740;-78
2021/03/03 06:17:24;;;;;;;;;23.75;21.75;;;;;;;;5072019;27;111992;-73
2021/03/03 06:19:51;;;;;;;;;25.75;24.50;;;;;;;;5068853;27;113189;-74
2021/03/03 06:22:23;;;;;;;;;24.50;22.50;;;;;;;;5061294;27;113403;-75
2021/03/03 06:24:49;;;;;;;;;30.75;23.25;;;;;;;;5065115;27;112178;-72
2021/03/03 06:27:16;;;;;;;;;22.75;20.50;;;;;;;;5065178;27;113994;-76
2021/03/03 06:30:00;;;;;;;;;26.00;22.00;;;;;;;;5067175;27;114406;-76
2021/03/03 06:32:26;;;;;;;;;26.25;21.00;;;;;;;;5064373;27;111815;-73
2021/03/03 06:34:52;;;;;;;;;22.00;18.25;;;;;;;;5069029;27;113450;-72
2021/03/03 06:37:18;;;;;;;;;21.00;18.50;;;;;;;;5066230;27;112099;-73
2021/03/03 06:39:44;;;;;;;;;25.00;22.25;;;;;;;;5062900;27;113466;-74
2021/03/03 06:42:10;;;;;;;;;23.75;18.00;;;;;;;;5065210;27;113903;-74
2021/03/03 06:44:47;;;;;;;;;27.00;18.50;;;;;;;;5061138;27;112556;-74
2021/03/03 06:47:13;;;;;;;;;25.75;19.75;;;;;;;;5066315;27;113734;-76
2021/03/03 06:49:39;;;;;;;;;21.75;19.00;;;;;;;;5064308;27;114341;-73
2021/03/03 06:52:05;;;;;;;;;22.75;19.50;;;;;;;;5071736;27;111993;-79
2021/03/03 06:54:31;;;;;;;;;24.75;21.75;;;;;;;;5063198;27;113702;-73
2021/03/03 06:56:58;;;;;;;;;22.25;20.50;;;;;;;;5069878;27;114336;-81
2021/03/03 06:59:25;;;;;;;;;24.75;23.00;;;;;;;;5065221;27;114212;-79
2021/03/03 07:01:56;;;;;;;;;23.50;21.75;;;;;;;;5058276;27;114094;-78
2021/03/03 07:04:23;;;;;;;;;24.00;22.00;;;;;;;;5064157;27;112788;-76
2021/03/03 07:06:50;;;;;;;;;19.75;19.75;;;;;;;;5061198;27;113530;-76
2021/03/03 07:09:16;;;;;;;;;24.50;20.25;;;;;;;;5063481;27;114483;-77
2021/03/03 07:11:43;;;;;;;;;30.75;25.00;;;;;;;;5069143;27;113096;-74
2021/03/03 07:14:13;;;;;;;;;18.00;14.50;;;;;;;;5063775;27;113657;-74
2021/03/03 07:16:59;;;;;;;;;11.25;11.25;;;;;;;;5067220;27;114122;-84
2021/03/03 07:19:26;;;;;;;;;17.00;15.50;;;;;;;;5071537;27;112025;-71
2021/03/03 07:21:52;;;;;;;;;17.00;13.25;;;;;;;;5059193;27;114380;-70
2021/03/03 07:24:18;;;;;;;;;19.00;16.50;;;;;;;;5064624;27;112093;-70
2021/03/03 07:26:44;;;;;;;;;17.00;16.00;;;;;;;;5065609;27;114292;-71
2021/03/03 07:29:10;;;;;;;;;25.25;18.50;;;;;;;;5063804;27;114087;-70
2021/03/03 07:31:37;;;;;;;;;13.75;11.25;;;;;;;;5067194;27;112133;-70
2021/03/03 07:34:03;;;;;;;;;30.75;20.50;;;;;;;;5063413;27;113839;-69
2021/03/03 07:36:30;;;;;;;;;21.25;19.50;;;;;;;;5058626;27;112939;-71
2021/03/03 07:38:57;;;;;;;;;21.33;19.67;;;;;;;;5062616;27;113420;-70
2021/03/03 07:41:25;;;;;;;;;19.00;15.67;;;;;;;;5063129;27;113292;-73
2021/03/03 07:43:51;;;;;;;;;22.00;19.00;;;;;;;;5061721;27;112669;-73
2021/03/03 07:46:19;;;;;;;;;30.00;26.50;;;;;;;;5067219;27;113715;-77
2021/03/03 07:48:49;;;;;;;;;27.00;24.67;;;;;;;;5071432;27;114422;-75
2021/03/03 07:51:16;;;;;;;;;18.50;18.50;;;;;;;;5067784;27;112033;-78
2021/03/03 07:53:43;;;;;;;;;32.25;24.50;;;;;;;;5069165;27;113922;-78
2021/03/03 07:56:10;;;;;;;;;25.25;24.25;;;;;;;;5063220;27;114067;-80
2021/03/03 07:58:37;;;;;;;;;32.00;29.50;;;;;;;;5059225;27;111997;-78
2021/03/03 08:01:03;;;;;;;;;31.25;27.75;;;;;;;;5053873;27;112914;-80
2021/03/03 08:03:42;;;;;;;;;29.00;22.00;;;;;;;;5069337;27;115778;-80
2021/03/03 08:06:24;;;;;;;;;26.67;24.67;;;;;;;;5066569;27;113574;-80
2021/03/03 08:09:05;;;;;;;;;29.00;24.00;;;;;;;;5062900;27;112956;-80
2021/03/03 08:11:33;;;;;;;;;34.00;32.33;;;;;;;;5066320;27;112450;-78
2021/03/03 08:14:00;;;;;;;;;25.67;23.33;;;;;;;;5065608;27;114463;-79
2021/03/03 08:16:26;;;;;;;;;34.33;29.33;;;;;;;;5066636;27;114238;-79
2021/03/03 08:18:53;;;;;;;;;40.33;34.00;;;;;;;;5066497;27;111961;-80
2021/03/03 08:21:27;;;;;;;;;40.33;35.67;;;;;;;;5067263;27;113590;-80
2021/03/03 08:23:53;;;;;;;;;33.75;30.50;;;;;;;;5066706;27;113932;-82
2021/03/03 08:26:34;;;;;;;;;32.00;26.50;;;;;;;;5074712;27;112523;-83
2021/03/03 08:29:30;;;;;;;;;30.25;27.75;;;;;;;;5071273;27;113791;-79
2021/03/03 08:32:14;;;;;;;;;26.75;26.75;;;;;;;;5073680;27;112309;-79
2021/03/03 08:34:51;;;;;;;;;32.50;31.50;;;;;;;;5057774;27;112556;-79
2021/03/03 08:37:30;;;;;;;;;33.00;29.50;;;;;;;;5061644;27;113009;-81
2021/03/03 08:39:56;;;;;;;;;31.00;26.00;;;;;;;;5068736;27;112188;-78
2021/03/03 08:42:42;;;;;;;;;29.00;27.25;;;;;;;;5062229;27;113538;-77
2021/03/03 08:45:13;;;;;;;;;25.00;24.00;;;;;;;;5064265;27;114063;-79
2021/03/03 08:47:49;;;;;;;;;30.00;27.75;;;;;;;;5067758;27;111917;-76
2021/03/03 08:50:33;;;;;;;;;29.75;29.75;;;;;;;;5060980;27;114094;-75
2021/03/03 08:53:18;;;;;;;;;31.50;28.50;;;;;;;;5063198;27;112536;-75
2021/03/03 08:55:44;;;;;;;;;30.50;27.25;;;;;;;;5066321;27;113704;-81
2021/03/03 08:58:25;;;;;;;;;26.25;24.25;;;;;;;;5058128;27;113539;-76
2021/03/03 09:00:52;;;;;;;;;31.75;28.00;;;;;;;;5063335;27;111941;-82
2021/03/03 09:03:19;;;;;;;;;33.50;31.50;;;;;;;;5066330;27;113677;-90
2021/03/03 09:05:45;;;;;;;;;32.00;26.50;;;;;;;;5066058;27;114687;-88
2021/03/03 09:08:18;;;;;;;;;31.00;27.75;;;;;;;;5064219;27;112232;-80
2021/03/03 09:10:44;;;;;;;;;29.25;27.00;;;;;;;;5068762;27;113765;-78
2021/03/03 09:13:20;;;;;;;;;28.25;27.25;;;;;;;;5065082;27;111880;-75
2021/03/03 09:16:01;;;;;;;;;26.75;22.75;;;;;;;;5065634;27;113789;-78
2021/03/03 09:18:27;;;;;;;;;25.75;24.25;;;;;;;;5062755;27;114203;-77
2021/03/03 09:21:03;;;;;;;;;29.00;24.75;;;;;;;;5066325;27;112248;-75
2021/03/03 09:23:29;;;;;;;;;26.50;24.25;;;;;;;;5063938;27;113765;-75
2021/03/03 09:25:55;;;;;;;;;28.00;26.75;;;;;;;;5067384;27;114898;-74
2021/03/03 09:28:21;;;;;;;;;26.75;26.75;;;;;;;;5065771;27;112434;-75
2021/03/03 09:30:47;;;;;;;;;28.50;26.25;;;;;;;;5064852;27;113738;-74
2021/03/03 09:33:13;;;;;;;;;27.25;24.50;;;;;;;;5070412;27;113942;-75
2021/03/03 09:35:40;;;;;;;;;27.75;26.00;;;;;;;;5068164;27;113614;-74
2021/03/03 09:38:10;;;;;;;;;27.25;27.25;;;;;;;;5065435;27;115004;-75
2021/03/03 09:40:37;;;;;;;;;26.00;24.00;;;;;;;;5059511;27;112002;-77
2021/03/03 09:43:03;;;;;;;;;29.00;27.00;;;;;;;;5067087;27;113470;-75
2021/03/03 09:45:30;;;;;;;;;27.00;26.00;;;;;;;;5062094;27;114293;-76
2021/03/03 09:47:57;;;;;;;;;28.00;26.33;;;;;;;;5065831;27;111897;-74
2021/03/03 09:50:25;;;;;;;;;30.50;28.25;;;;;;;;5065395;27;114646;-75
2021/03/03 09:52:52;;;;;;;;;30.00;27.25;;;;;;;;5065894;27;114114;-78
2021/03/03 09:55:19;;;;;;;;;32.00;29.00;;;;;;;;5068838;27;112843;-78
2021/03/03 09:57:48;;;;;;;;;32.67;29.67;;;;;;;;5064303;27;114490;-78
2021/03/03 10:00:16;;;;;;;;;35.00;30.33;;;;;;;;5065718;27;111919;-74
2021/03/03 10:02:46;;;;;;;;;32.33;29.67;;;;;;;;5066789;27;114443;-80
2021/03/03 10:05:16;;;;;;;;;34.67;30.00;;;;;;;;5065898;27;114207;-82
2021/03/03 10:07:42;;;;;;;;;29.00;27.67;;;;;;;;5060940;27;111931;-79
2021/03/03 10:10:11;;;;;;;;;27.67;24.67;;;;;;;;5068147;27;113774;-74
2021/03/03 10:12:37;;;;;;;;;31.67;30.00;;;;;;;;5065313;27;114982;-76
2021/03/03 10:15:06;;;;;;;;;33.00;29.33;;;;;;;;5058055;27;112999;-74
2021/03/03 10:17:37;;;;;;;;;32.33;29.67;;;;;;;;5067508;27;113807;-81
2021/03/03 10:20:04;;;;;;;;;30.00;28.67;;;;;;;;5065962;27;112465;-78
2021/03/03 10:22:31;;;;;;;;;29.00;27.33;;;;;;;;5063021;27;113693;-77
2021/03/03 10:24:57;;;;;;;;;30.00;28.33;;;;;;;;5068915;27;114117;-75
2021/03/03 10:27:25;;;;;;;;;30.33;27.00;;;;;;;;5066249;27;112865;-77
2021/03/03 10:29:51;;;;;;;;;30.67;28.67;;;;;;;;5073207;27;113936;-79
2021/03/03 10:32:17;;;;;;;;;30.67;27.67;;;;;;;;5072602;27;113960;-83
2021/03/03 10:34:43;;;;;;;;;33.67;30.00;;;;;;;;5074224;27;112114;-81
2021/03/03 10:37:22;;;;;;;;;28.33;26.33;;;;;;;;5074019;27;113742;-91
2021/03/03 10:39:49;;;;;;;;;29.00;27.33;;;;;;;;5077289;27;114730;-78
2021/03/03 10:42:20;;;;;;;;;31.33;28.67;;;;;;;;5072010;27;113725;-77
2021/03/03 10:44:49;;;;;;;;;26.00;25.67;;;;;;;;5075522;27;114093;-79
2021/03/03 10:47:15;;;;;;;;;32.00;29.33;;;;;;;;5066233;27;112099;-81
2021/03/03 10:49:41;;;;;;;;;30.67;27.67;;;;;;;;5068754;27;113804;-79
2021/03/03 10:52:18;;;;;;;;;27.67;26.33;;;;;;;;5073379;27;113977;-79
2021/03/03 10:54:44;;;;;;;;;51.75;41.50;;;;;;;;5076558;27;112415;-78
2021/03/03 10:57:10;;;;;;;;;36.00;32.00;;;;;;;;5078042;27;114013;-78
2021/03/03 10:59:37;;;;;;;;;30.67;28.00;;;;;;;;5080990;27;114229;-80
2021/03/03 11:02:04;;;;;;;;;27.33;26.67;;;;;;;;5077823;27;114610;-75
2021/03/03 11:04:37;;;;;;;;;29.33;26.00;;;;;;;;5076585;27;114100;-76
2021/03/03 11:07:03;;;;;;;;;27.00;26.33;;;;;;;;5077148;27;112460;-77
2021/03/03 11:09:29;;;;;;;;;25.67;25.67;;;;;;;;5075911;27;115301;-79
2021/03/03 11:11:57;;;;;;;;;29.33;27.33;;;;;;;;5076907;27;113963;-74
2021/03/03 11:14:23;;;;;;;;;33.67;30.00;;;;;;;;5077644;27;112671;-79
2021/03/03 11:16:49;;;;;;;;;29.50;28.00;;;;;;;;5075818;27;113503;-77
2021/03/03 11:19:17;;;;;;;;;29.50;27.25;;;;;;;;5075547;27;114342;-75
2021/03/03 11:21:43;;;;;;;;;31.25;29.00;;;;;;;;5081882;27;113200;-74
2021/03/03 11:24:09;;;;;;;;;29.25;25.00;;;;;;;;5074588;27;114039;-74
2021/03/03 11:26:36;;;;;;;;;31.25;29.25;;;;;;;;5077044;27;112656;-81
2021/03/03 11:29:02;;;;;;;;;29.00;26.25;;;;;;;;5077875;27;112674;-87
2021/03/03 11:31:28;;;;;;;;;30.75;28.50;;;;;;;;5072411;27;113196;-77
2021/03/03 11:33:54;;;;;;;;;33.50;28.00;;;;;;;;5075942;27;112237;-77
2021/03/03 11:36:21;;;;;;;;;23.75;21.00;;;;;;;;5076394;27;113084;-86
2021/03/03 11:38:47;;;;;;;;;29.25;29.25;;;;;;;;5065949;27;113142;-80
2021/03/03 11:41:13;;;;;;;;;27.50;25.75;;;;;;;;5075602;27;114003;-78
2021/03/03 11:43:39;;;;;;;;;25.00;23.50;;;;;;;;5080018;27;114203;-75
2021/03/03 11:46:05;;;;;;;;;24.25;23.00;;;;;;;;5076666;27;112117;-80
2021/03/03 11:48:31;;;;;;;;;24.00;23.25;;;;;;;;5077156;27;113621;-78
2021/03/03 11:50:57;;;;;;;;;26.00;23.00;;;;;;;;5076675;27;113951;-78
2021/03/03 11:53:24;;;;;;;;;26.50;23.00;;;;;;;;5075447;27;112071;-77
2021/03/03 11:55:53;;;;;;;;;25.25;23.50;;;;;;;;5075062;27;113568;-79
2021/03/03 11:58:19;;;;;;;;;28.25;26.25;;;;;;;;5075969;27;114716;-83
2021/03/03 12:00:45;;;;;;;;;22.25;21.50;;;;;;;;5073851;27;112012;-85
2021/03/03 12:03:11;;;;;;;;;35.50;30.50;;;;;;;;5076261;27;113535;-77
2021/03/03 12:05:37;;;;;;;;;27.25;24.00;;;;;;;;5079664;27;114282;-79
2021/03/03 12:08:06;;;;;;;;;22.75;20.25;;;;;;;;5064234;27;113028;-83
2021/03/03 12:10:33;;;;;;;;;21.25;19.25;;;;;;;;5073587;27;114151;-74
2021/03/03 12:12:59;;;;;;;;;21.00;19.50;;;;;;;;5074815;27;111885;-70
2021/03/03 12:15:25;;;;;;;;;19.50;17.75;;;;;;;;5076863;27;113888;-72
2021/03/03 12:17:51;;;;;;;;;29.75;23.75;;;;;;;;5076828;27;114710;-71
2021/03/03 12:20:18;;;;;;;;;22.75;21.50;;;;;;;;5069591;27;112083;-70
2021/03/03 12:22:44;;;;;;;;;27.00;20.75;;;;;;;;5076822;27;113404;-71
2021/03/03 12:25:11;;;;;;;;;25.25;19.25;;;;;;;;5073665;27;113765;-70
2021/03/03 12:27:38;;;;;;;;;23.75;21.75;;;;;;;;5081096;27;111878;-69
2021/03/03 12:30:04;;;;;;;;;23.75;19.75;;;;;;;;5072884;27;114471;-70
2021/03/03 12:32:30;;;;;;;;;22.75;18.25;;;;;;;;5072660;27;112239;-70
2021/03/03 12:34:58;;;;;;;;;30.50;23.50;;;;;;;;5071689;27;113407;-70
2021/03/03 12:37:24;;;;;;;;;20.50;19.00;;;;;;;;5063388;27;114080;-70
2021/03/03 12:39:50;;;;;;;;;22.75;21.00;;;;;;;;5061994;27;111956;-70
2021/03/03 12:42:16;;;;;;;;;24.50;20.00;;;;;;;;5066158;27;113737;-70
2021/03/03 12:44:43;;;;;;;;;27.00;23.50;;;;;;;;5063483;27;114358;-69
2021/03/03 12:47:09;;;;;;;;;26.00;24.00;;;;;;;;5055650;27;112058;-69
2021/03/03 12:49:35;;;;;;;;;25.50;23.00;;;;;;;;5074517;27;113723;-70
2021/03/03 12:52:01;;;;;;;;;22.50;20.00;;;;;;;;5072874;27;114191;-70
2021/03/03 12:54:27;;;;;;;;;24.25;20.00;;;;;;;;5070955;27;113671;-70
2021/03/03 12:56:53;;;;;;;;;24.75;22.00;;;;;;;;5072241;27;114255;-74
2021/03/03 12:59:19;;;;;;;;;17.50;16.50;;;;;;;;5074276;27;112025;-79
2021/03/03 13:01:46;;;;;;;;;18.25;14.00;;;;;;;;5071562;27;113443;-81
2021/03/03 13:04:11;;;;;;;;;10.00;8.50;;;;;;;;5071192;27;114184;-83
2021/03/03 13:06:37;;;;;;;;;23.00;19.50;;;;;;;;5070670;27;113070;-80
2021/03/03 13:09:04;;;;;;;;;26.25;19.00;;;;;;;;5077774;27;113932;-87
2021/03/03 13:11:30;;;;;;;;;26.25;21.75;;;;;;;;5073656;27;113487;-82
2021/03/03 13:13:56;;;;;;;;;19.25;18.00;;;;;;;;5073238;27;113727;-79
2021/03/03 13:16:22;;;;;;;;;20.00;18.75;;;;;;;;5072953;27;113853;-86
2021/03/03 13:18:49;;;;;;;;;16.50;14.75;;;;;;;;5066388;27;112671;-84
2021/03/03 13:21:15;;;;;;;;;18.25;16.25;;;;;;;;5073397;27;114031;-78
2021/03/03 13:23:41;;;;;;;;;22.75;21.25;;;;;;;;5071773;27;114182;-79
2021/03/03 13:26:07;;;;;;;;;20.00;16.75;;;;;;;;5073335;27;112131;-82
2021/03/03 13:28:33;;;;;;;;;20.00;15.25;;;;;;;;5073341;27;113447;-86
2021/03/03 13:30:59;;;;;;;;;21.50;18.00;;;;;;;;5075912;27;113512;-82
2021/03/03 13:33:25;;;;;;;;;18.00;15.25;;;;;;;;5073456;27;113278;-85
2021/03/03 13:35:52;;;;;;;;;20.25;17.00;;;;;;;;5068070;27;113128;-85
2021/03/03 13:38:18;;;;;;;;;19.00;17.00;;;;;;;;5074666;27;111954;-86
2021/03/03 13:40:44;;;;;;;;;18.75;14.75;;;;;;;;5066296;27;112746;-82
2021/03/03 13:43:10;;;;;;;;;16.00;15.00;;;;;;;;5071815;27;115519;-82
2021/03/03 13:45:37;;;;;;;;;12.00;12.00;;;;;;;;5056293;27;112130;-87
2021/03/03 13:48:03;;;;;;;;;16.50;14.00;;;;;;;;5065840;27;113619;-86
2021/03/03 13:50:29;;;;;;;;;14.00;11.50;;;;;;;;5053726;27;113332;-81
2021/03/03 13:52:56;;;;;;;;;13.75;11.50;;;;;;;;5068447;27;112966;-81
2021/03/03 13:55:22;;;;;;;;;13.00;13.00;;;;;;;;5065603;27;113347;-84
2021/03/03 13:57:48;;;;;;;;;16.50;13.75;;;;;;;;5065817;27;112466;-81
2021/03/03 14:00:14;;;;;;;;;13.75;12.50;;;;;;;;5062112;27;113430;-87
2021/03/03 14:02:41;;;;;;;;;2.50;0.00;;;;;;;;5066317;27;114275;-89
2021/03/03 14:05:07;;;;;;;;;12.50;9.75;;;;;;;;5066528;27;113513;-89